createdAt,value
2022-12-03T00:00:59.139Z,-3.29
2022-12-03T00:06:00.447Z,-3.20
2022-12-03T00:11:01.553Z,-3.14
2022-12-03T00:16:02.819Z,-3.12
2022-12-03T00:21:04.132Z,-3.05
2022-12-03T00:26:05.333Z,-2.97
2022-12-03T00:31:06.472Z,-2.96
2022-12-03T00:36:08.219Z,-3.01
2022-12-03T00:41:09.265Z,-3.03
2022-12-03T00:46:11.086Z,-2.99
2022-12-03T00:51:12.219Z,-2.93
2022-12-03T00:56:13.555Z,-2.89
2022-12-03T01:01:15.017Z,-2.87
2022-12-03T01:06:16.467Z,-2.87
2022-12-03T01:11:36.373Z,-2.90
2022-12-03T01:16:38.953Z,-2.95
2022-12-03T01:21:40.789Z,-2.98
2022-12-03T01:26:42.147Z,-2.98
2022-12-03T01:32:02.064Z,-2.94
2022-12-03T01:37:03.573Z,-2.94
2022-12-03T01:42:06.179Z,-2.98
2022-12-03T01:47:17.446Z,-3.02
2022-12-03T01:52:23.466Z,-3.01
2022-12-03T01:57:37.030Z,-3.02
2022-12-03T02:02:38.650Z,-3.01
2022-12-03T02:07:40.248Z,-3.00
2022-12-03T02:12:46.608Z,-3.02
2022-12-03T02:17:48.059Z,-3.03
2022-12-03T02:23:13.309Z,-3.01
2022-12-03T02:28:14.476Z,-2.99
2022-12-03T02:33:15.907Z,-2.99
2022-12-03T02:38:20.817Z,-2.98
2022-12-03T02:43:22.942Z,-2.97
2022-12-03T02:48:35.010Z,-2.94
2022-12-03T02:53:43.682Z,-2.94
2022-12-03T02:58:47.677Z,-2.98
2022-12-03T03:03:50.388Z,-2.98
2022-12-03T03:08:51.939Z,-2.97
2022-12-03T03:13:53.338Z,-2.98
2022-12-03T03:18:54.723Z,-2.95
2022-12-03T03:23:55.785Z,-2.96
2022-12-03T03:28:59.206Z,-3.00
2022-12-03T03:34:00.470Z,-3.03
2022-12-03T03:39:04.188Z,-3.03
2022-12-03T03:44:07.219Z,-2.99
2022-12-03T03:49:09.814Z,-2.91
2022-12-03T03:54:11.760Z,-2.86
2022-12-03T03:59:13.867Z,-2.83
2022-12-03T04:04:20.960Z,-2.81
2022-12-03T04:09:22.083Z,-2.78
2022-12-03T04:14:23.217Z,-2.80
2022-12-03T04:19:24.629Z,-2.87
2022-12-03T04:24:25.665Z,-2.92
2022-12-03T04:29:26.967Z,-2.91
2022-12-03T04:34:46.938Z,-2.89
2022-12-03T04:39:48.165Z,-2.88
2022-12-03T04:44:49.445Z,-2.87
2022-12-03T04:49:51.248Z,-2.82
2022-12-03T04:54:52.786Z,-2.80
2022-12-03T04:59:54.095Z,-2.81
2022-12-03T05:04:55.380Z,-2.84
2022-12-03T05:09:57.085Z,-2.86
2022-12-03T05:14:58.436Z,-2.83
2022-12-03T05:20:18.338Z,-2.78
2022-12-03T05:25:19.622Z,-2.75
2022-12-03T05:30:21.794Z,-2.76
2022-12-03T05:35:23.373Z,-2.78
2022-12-03T05:40:24.932Z,-2.76
2022-12-03T05:45:27.823Z,-2.76
2022-12-03T05:50:33.091Z,-2.74
2022-12-03T05:55:34.373Z,-2.76
2022-12-03T06:00:42.740Z,-2.80
2022-12-03T06:05:45.322Z,-2.79
2022-12-03T06:10:46.744Z,-2.75
2022-12-03T06:15:47.854Z,-2.71
2022-12-03T06:20:49.498Z,-2.69
2022-12-03T06:25:50.557Z,-2.68
2022-12-03T06:30:51.607Z,-2.68
2022-12-03T06:35:52.902Z,-2.66
2022-12-03T06:40:53.887Z,-2.66
2022-12-03T06:45:54.966Z,-2.64
2022-12-03T06:50:55.982Z,-2.60
2022-12-03T06:55:57.400Z,-2.53
2022-12-03T07:00:58.542Z,-2.48
2022-12-03T07:05:59.658Z,-2.45
2022-12-03T07:11:00.789Z,-2.41
2022-12-03T07:16:02.003Z,-2.39
2022-12-03T07:21:03.200Z,-2.34
2022-12-03T07:26:04.925Z,-2.27
2022-12-03T07:31:06.063Z,-2.23
2022-12-03T07:36:08.894Z,-2.26
2022-12-03T07:41:10.074Z,-2.29
2022-12-03T07:46:11.325Z,-2.28
2022-12-03T07:51:15.256Z,-2.24
2022-12-03T07:56:16.997Z,-2.18
2022-12-03T08:01:18.202Z,-2.11
2022-12-03T08:06:19.500Z,-2.04
2022-12-03T08:11:20.599Z,-1.99
2022-12-03T08:16:22.047Z,-1.95
2022-12-03T08:21:23.276Z,-1.94
2022-12-03T08:26:25.576Z,-1.91
2022-12-03T08:31:33.671Z,-1.93
2022-12-03T08:36:35.705Z,-1.94
2022-12-03T08:41:54.730Z,-1.91
2022-12-03T08:47:18.961Z,-1.81
2022-12-03T08:52:22.123Z,-1.69
2022-12-03T08:57:30.849Z,-1.57
2022-12-03T09:02:33.619Z,-1.48
2022-12-03T09:07:34.901Z,-1.47
2022-12-03T09:12:36.183Z,-1.48
2022-12-03T09:17:37.347Z,-1.51
2022-12-03T09:22:38.581Z,-1.61
2022-12-03T09:27:40.749Z,-1.74
2022-12-03T09:32:42.137Z,-1.83
2022-12-03T09:37:43.268Z,-1.85
2022-12-03T09:42:45.101Z,-1.83
2022-12-03T09:47:48.737Z,-1.78
2022-12-03T09:52:54.037Z,-1.76
2022-12-03T09:57:56.598Z,-1.76
2022-12-03T10:03:02.089Z,-1.71
2022-12-03T10:08:06.143Z,-1.65
2022-12-03T10:13:11.970Z,-1.64
2022-12-03T10:18:20.822Z,-1.66
2022-12-03T10:23:28.094Z,-1.63
2022-12-03T10:28:38.466Z,-1.54
2022-12-03T10:33:46.421Z,-1.44
2022-12-03T10:39:07.042Z,-1.40
2022-12-03T10:44:21.325Z,-1.39
2022-12-03T10:49:22.906Z,-1.42
2022-12-03T10:54:25.379Z,-1.52
2022-12-03T10:59:33.202Z,-1.61
2022-12-03T11:04:36.081Z,-1.69
2022-12-03T11:09:38.291Z,-1.75
2022-12-03T11:15:05.436Z,-1.74
2022-12-03T11:20:29.694Z,-1.79
2022-12-03T11:25:49.598Z,-1.77
2022-12-03T11:30:50.700Z,-1.70
2022-12-03T11:36:12.002Z,-1.69
2022-12-03T11:41:14.503Z,-1.65
2022-12-03T11:46:15.642Z,-1.67
2022-12-03T11:51:20.603Z,-1.69
2022-12-03T11:56:28.436Z,-1.66
2022-12-03T12:01:38.606Z,-1.63
2022-12-03T12:06:42.667Z,-1.61
2022-12-03T12:11:43.808Z,-1.60
2022-12-03T12:16:49.874Z,-1.60
2022-12-03T12:21:52.998Z,-1.56
2022-12-03T12:26:55.478Z,-1.53
2022-12-03T12:32:08.207Z,-1.51
2022-12-03T12:37:28.117Z,-1.49
2022-12-03T12:42:30.895Z,-1.52
2022-12-03T12:47:38.089Z,-1.56
2022-12-03T12:52:50.833Z,-1.53
2022-12-03T12:57:52.389Z,-1.40
2022-12-03T13:02:59.244Z,-1.23
2022-12-03T13:08:02.742Z,-0.97
2022-12-03T13:13:32.041Z,-0.76
2022-12-03T13:18:36.140Z,-0.61
2022-12-03T13:23:38.638Z,-0.53
2022-12-03T13:28:40.993Z,-0.59
2022-12-03T13:33:42.280Z,-0.76
2022-12-03T13:38:47.160Z,-0.99
2022-12-03T13:43:49.354Z,-1.13
2022-12-03T13:48:50.427Z,-1.23
2022-12-03T13:53:52.106Z,-1.35
2022-12-03T13:58:54.994Z,-1.44
2022-12-03T14:03:56.223Z,-1.52
2022-12-03T14:08:57.327Z,-1.60
2022-12-03T14:13:58.336Z,-1.66
2022-12-03T14:18:59.418Z,-1.74
2022-12-03T14:24:00.522Z,-1.73
2022-12-03T14:29:05.857Z,-1.69
2022-12-03T14:34:09.700Z,-1.70
2022-12-03T14:39:10.871Z,-1.80
2022-12-03T14:44:12.016Z,-1.84
2022-12-03T14:49:13.903Z,-1.83
2022-12-03T14:54:15.103Z,-1.82
2022-12-03T14:59:16.089Z,-1.84
2022-12-03T15:04:17.406Z,-1.89
2022-12-03T15:09:18.925Z,-1.93
2022-12-03T15:14:20.040Z,-1.91
2022-12-03T15:19:21.081Z,-1.89
2022-12-03T15:24:22.137Z,-1.93
2022-12-03T15:29:23.753Z,-1.97
2022-12-03T15:34:24.814Z,-1.99
2022-12-03T15:39:26.333Z,-2.00
2022-12-03T15:44:27.395Z,-2.04
2022-12-03T15:49:28.401Z,-2.05
2022-12-03T15:54:29.792Z,-2.04
2022-12-03T15:59:31.122Z,-1.99
2022-12-03T16:04:32.177Z,-1.91
2022-12-03T16:09:33.543Z,-1.88
2022-12-03T16:14:34.960Z,-1.91
2022-12-03T16:19:36.394Z,-1.93
2022-12-03T16:24:37.776Z,-1.93
2022-12-03T16:29:40.135Z,-1.90
2022-12-03T16:34:41.697Z,-1.87
2022-12-03T16:39:42.883Z,-1.87
2022-12-03T16:45:04.693Z,-1.88
2022-12-03T16:50:09.133Z,-1.86
2022-12-03T16:55:10.897Z,-1.83
2022-12-03T17:00:13.283Z,-1.81
2022-12-03T17:05:14.345Z,-1.79
2022-12-03T17:10:15.438Z,-1.80
2022-12-03T17:15:16.608Z,-1.80
2022-12-03T17:20:18.123Z,-1.80
2022-12-03T17:25:19.362Z,-1.79
2022-12-03T17:30:20.855Z,-1.80
2022-12-03T17:35:22.022Z,-1.78
2022-12-03T17:40:23.184Z,-1.75
2022-12-03T17:45:24.408Z,-1.71
2022-12-03T17:50:27.083Z,-1.69
2022-12-03T17:55:38.376Z,-1.65
2022-12-03T18:00:44.675Z,-1.62
2022-12-03T18:05:45.774Z,-1.61
2022-12-03T18:10:47.870Z,-1.60
2022-12-03T18:15:48.982Z,-1.61
2022-12-03T18:20:52.404Z,-1.61
2022-12-03T18:25:54.448Z,-1.54
2022-12-03T18:30:55.514Z,-1.45
2022-12-03T18:35:57.449Z,-1.40
2022-12-03T18:40:59.130Z,-1.39
2022-12-03T18:46:00.715Z,-1.41
2022-12-03T18:51:04.484Z,-1.40
2022-12-03T18:56:06.327Z,-1.40
2022-12-03T19:01:15.112Z,-1.42
2022-12-03T19:06:20.423Z,-1.44
2022-12-03T19:11:21.552Z,-1.47
2022-12-03T19:16:22.847Z,-1.47
2022-12-03T19:21:24.049Z,-1.43
2022-12-03T19:26:26.588Z,-1.35
2022-12-03T19:31:29.929Z,-1.26
2022-12-03T19:36:31.400Z,-1.18
2022-12-03T19:41:32.639Z,-1.12
2022-12-03T19:46:34.030Z,-1.10
2022-12-03T19:51:35.899Z,-1.13
2022-12-03T19:56:37.387Z,-1.13
2022-12-03T20:01:39.948Z,-1.08
2022-12-03T20:06:41.250Z,-1.02
2022-12-03T20:11:43.826Z,-0.97
2022-12-03T20:16:46.161Z,-0.91
2022-12-03T20:21:47.247Z,-0.85
2022-12-03T20:26:48.272Z,-0.79
2022-12-03T20:31:49.498Z,-0.77
2022-12-03T20:36:50.789Z,-0.75
2022-12-03T20:41:51.755Z,-0.73
2022-12-03T20:46:53.301Z,-0.72
2022-12-03T20:51:54.383Z,-0.73
2022-12-03T20:56:55.865Z,-0.74
2022-12-03T21:01:57.076Z,-0.72
2022-12-03T21:06:58.475Z,-0.70
2022-12-03T21:11:59.491Z,-0.67
2022-12-03T21:17:09.613Z,-0.61
2022-12-03T21:22:11.014Z,-0.52
2022-12-03T21:27:14.615Z,-0.42
2022-12-03T21:32:19.475Z,-0.36
2022-12-03T21:37:20.500Z,-0.37
2022-12-03T21:42:35.629Z,-0.42
2022-12-03T21:47:38.135Z,-0.46
2022-12-03T21:52:39.839Z,-0.48
2022-12-03T21:57:40.872Z,-0.50
2022-12-03T22:02:41.930Z,-0.51
2022-12-03T22:07:43.305Z,-0.52
2022-12-03T22:12:44.394Z,-0.50
2022-12-03T22:17:46.084Z,-0.45
2022-12-03T22:22:47.248Z,-0.38
2022-12-03T22:27:48.725Z,-0.31
2022-12-03T22:32:49.871Z,-0.25
2022-12-03T22:37:50.960Z,-0.20
2022-12-03T22:42:52.003Z,-0.19
2022-12-03T22:47:53.062Z,-0.19
2022-12-03T22:52:54.104Z,-0.17
2022-12-03T22:57:55.311Z,-0.15
2022-12-03T23:02:56.658Z,-0.15
2022-12-03T23:07:58.253Z,-0.12
2022-12-03T23:12:59.690Z,-0.07
2022-12-03T23:18:00.924Z,-0.06
2022-12-03T23:23:02.260Z,-0.04
2022-12-03T23:28:04.495Z,-0.02
2022-12-03T23:33:05.935Z,-0.02
2022-12-03T23:38:07.075Z,0.00
2022-12-03T23:43:08.092Z,0.02
2022-12-03T23:48:09.406Z,0.00
2022-12-03T23:53:10.483Z,0.01
2022-12-03T23:58:11.527Z,0.03
